createdAt,value
2019-04-07T00:01:53.242Z,54.13
2019-04-07T00:04:21.611Z,53.57
2019-04-07T00:06:49.742Z,53.87
2019-04-07T00:09:17.949Z,53.40
2019-04-07T00:11:46.146Z,56.83
2019-04-07T00:14:14.355Z,55.97
2019-04-07T00:16:42.693Z,53.70
2019-04-07T00:19:11.135Z,55.67
2019-04-07T00:21:39.617Z,54.17
2019-04-07T00:24:07.798Z,55.30
2019-04-07T00:26:36.006Z,55.90
2019-04-07T00:29:04.767Z,53.97
2019-04-07T00:31:32.983Z,55.70
2019-04-07T00:34:01.611Z,55.53
2019-04-07T00:36:30.024Z,55.60
2019-04-07T00:38:58.222Z,56.90
2019-04-07T00:41:26.463Z,55.10
2019-04-07T00:43:54.914Z,58.00
2019-04-07T00:46:23.373Z,58.23
2019-04-07T00:48:51.532Z,58.53
2019-04-07T00:51:20.579Z,57.73
2019-04-07T00:53:48.822Z,59.07
2019-04-07T00:56:17.016Z,57.80
2019-04-07T00:58:45.678Z,55.97
2019-04-07T01:01:15.466Z,59.53
2019-04-07T01:03:43.689Z,58.77
2019-04-07T01:06:12.926Z,58.70
2019-04-07T01:08:41.555Z,59.67
2019-04-07T01:11:09.842Z,59.03
2019-04-07T01:13:38.557Z,56.23
2019-04-07T01:16:06.728Z,59.93
2019-04-07T01:18:35.571Z,59.10
2019-04-07T01:21:03.859Z,61.03
2019-04-07T01:23:32.527Z,61.27
2019-04-07T01:26:00.960Z,63.13
2019-04-07T01:28:29.512Z,64.67
2019-04-07T01:30:59.030Z,62.17
2019-04-07T01:33:27.751Z,64.07
2019-04-07T01:35:56.434Z,66.03
2019-04-07T01:38:24.676Z,63.83
2019-04-07T01:40:59.975Z,63.47
2019-04-07T01:43:38.449Z,64.23
2019-04-07T01:46:11.088Z,63.80
2019-04-07T01:48:43.641Z,62.27
2019-04-07T01:51:13.541Z,65.33
2019-04-07T01:53:48.866Z,62.13
2019-04-07T01:56:27.305Z,61.77
2019-04-07T01:59:05.623Z,61.67
2019-04-07T02:01:41.722Z,61.47
2019-04-07T02:04:28.074Z,61.90
2019-04-07T02:07:16.228Z,60.77
2019-04-07T02:09:46.851Z,62.80
2019-04-07T02:12:22.431Z,62.30
2019-04-07T02:14:58.901Z,61.83
2019-04-07T02:17:31.763Z,62.13
2019-04-07T02:20:07.826Z,62.10
2019-04-07T02:22:38.607Z,62.17
2019-04-07T02:25:24.054Z,62.00
2019-04-07T02:27:56.899Z,63.47
2019-04-07T02:30:44.836Z,63.57
2019-04-07T02:33:24.365Z,60.77
2019-04-07T02:36:21.390Z,61.20
2019-04-07T02:38:44.128Z,60.20
2019-04-07T02:41:19.941Z,60.83
2019-04-07T02:44:06.854Z,59.70
2019-04-07T02:46:38.058Z,58.57
2019-04-07T02:49:10.910Z,60.70
2019-04-07T02:51:40.724Z,61.00
2019-04-07T02:54:10.571Z,58.43
2019-04-07T02:56:49.471Z,62.63
2019-04-07T02:59:29.204Z,61.93
2019-04-07T03:02:15.363Z,61.13
2019-04-07T03:04:48.104Z,58.20
2019-04-07T03:07:17.956Z,58.27
2019-04-07T03:10:00.405Z,60.90
2019-04-07T03:12:46.695Z,58.47
2019-04-07T03:15:25.386Z,60.10
2019-04-07T03:17:57.921Z,61.77
2019-04-07T03:20:43.439Z,57.83
2019-04-07T03:23:22.268Z,56.37
2019-04-07T03:25:54.960Z,55.87
2019-04-07T03:28:30.673Z,60.00
2019-04-07T03:31:21.280Z,57.20
2019-04-07T03:33:51.910Z,56.97
2019-04-07T03:36:25.144Z,58.80
2019-04-07T03:38:56.125Z,55.07
2019-04-07T03:41:31.888Z,55.47
2019-04-07T03:44:01.818Z,55.53
2019-04-07T03:46:34.677Z,54.37
2019-04-07T03:49:04.565Z,58.10
2019-04-07T03:51:43.939Z,54.63
2019-04-07T03:54:25.633Z,54.23
2019-04-07T03:57:14.971Z,54.30
2019-04-07T03:59:57.765Z,54.60
2019-04-07T04:02:34.409Z,52.53
2019-04-07T04:05:05.317Z,54.33
2019-04-07T04:07:41.833Z,54.17
2019-04-07T04:10:14.484Z,54.27
2019-04-07T04:12:44.309Z,53.17
2019-04-07T04:15:23.161Z,53.10
2019-04-07T04:17:51.400Z,52.77
2019-04-07T04:20:19.776Z,50.87
2019-04-07T04:22:48.571Z,53.07
2019-04-07T04:25:17.189Z,49.13
2019-04-07T04:27:45.503Z,50.37
2019-04-07T04:30:13.718Z,51.77
2019-04-07T04:32:41.961Z,51.70
2019-04-07T04:35:10.772Z,54.27
2019-04-07T04:37:44.236Z,54.00
2019-04-07T04:40:09.347Z,54.33
2019-04-07T04:42:37.701Z,54.37
2019-04-07T04:45:08.066Z,52.40
2019-04-07T04:47:37.456Z,49.87
2019-04-07T04:50:08.276Z,51.90
2019-04-07T04:52:36.780Z,51.53
2019-04-07T04:55:05.428Z,54.77
2019-04-07T04:57:33.996Z,54.47
2019-04-07T05:00:02.434Z,55.77
2019-04-07T05:02:30.611Z,58.33
2019-04-07T05:04:59.372Z,54.43
2019-04-07T05:07:27.601Z,55.60
2019-04-07T05:09:56.763Z,56.60
2019-04-07T05:12:25.219Z,57.53
2019-04-07T05:14:53.996Z,57.80
2019-04-07T05:17:22.206Z,59.30
2019-04-07T05:19:50.973Z,61.23
2019-04-07T05:22:19.218Z,58.90
2019-04-07T05:24:47.594Z,61.60
2019-04-07T05:27:16.448Z,58.20
2019-04-07T05:29:44.756Z,62.20
2019-04-07T05:32:12.916Z,59.63
2019-04-07T05:34:41.267Z,58.30
2019-04-07T05:37:09.889Z,59.63
2019-04-07T05:39:38.397Z,57.93
2019-04-07T05:42:07.037Z,58.70
2019-04-07T05:44:35.600Z,59.97
2019-04-07T05:47:03.842Z,58.63
2019-04-07T05:49:32.527Z,51.17
2019-04-07T05:52:04.039Z,54.93
2019-04-07T05:54:30.664Z,52.03
2019-04-07T05:57:01.350Z,51.83
2019-04-07T05:59:28.832Z,54.10
2019-04-07T06:02:00.701Z,62.00
2019-04-07T06:04:27.114Z,65.07
2019-04-07T06:06:56.382Z,57.67
2019-04-07T06:09:25.131Z,52.80
2019-04-07T06:11:53.305Z,50.17
2019-04-07T06:14:21.498Z,49.77
2019-04-07T06:16:53.595Z,50.23
2019-04-07T06:19:20.321Z,51.87
2019-04-07T06:21:48.900Z,57.20
2019-04-07T06:24:18.398Z,60.53
2019-04-07T06:26:50.003Z,64.63
2019-04-07T06:29:18.287Z,65.43
2019-04-07T06:31:47.103Z,59.60
2019-04-07T06:34:16.185Z,66.53
2019-04-07T06:36:44.971Z,65.90
2019-04-07T06:39:13.534Z,63.33
2019-04-07T06:41:43.303Z,56.43
2019-04-07T06:44:15.809Z,67.57
2019-04-07T06:46:43.452Z,65.27
2019-04-07T06:49:15.933Z,65.10
2019-04-07T06:52:04.175Z,65.33
2019-04-07T06:54:42.114Z,61.77
2019-04-07T06:57:14.832Z,63.33
2019-04-07T07:00:02.326Z,65.37
2019-04-07T07:02:47.823Z,62.43
2019-04-07T07:05:17.886Z,62.80
2019-04-07T07:08:03.678Z,59.07
2019-04-07T07:10:37.797Z,58.10
2019-04-07T07:13:11.567Z,59.13
2019-04-07T07:15:42.894Z,57.03
2019-04-07T07:18:21.308Z,57.53
2019-04-07T07:20:51.529Z,56.97
2019-04-07T07:23:31.087Z,56.23
2019-04-07T07:26:02.929Z,58.67
2019-04-07T07:28:29.168Z,54.23
2019-04-07T07:30:57.369Z,58.67
2019-04-07T07:33:25.569Z,58.77
2019-04-07T07:35:53.787Z,55.73
2019-04-07T07:38:22.463Z,54.10
2019-04-07T07:40:51.548Z,52.23
2019-04-07T07:43:19.872Z,53.60
2019-04-07T07:45:48.576Z,54.77
2019-04-07T07:48:17.486Z,53.13
2019-04-07T07:50:45.818Z,51.83
2019-04-07T07:53:14.093Z,51.37
2019-04-07T07:55:42.255Z,50.43
2019-04-07T07:58:10.576Z,50.33
2019-04-07T08:00:41.560Z,46.60
2019-04-07T08:03:08.957Z,51.30
2019-04-07T08:05:37.617Z,50.67
2019-04-07T08:08:05.918Z,43.67
2019-04-07T08:10:34.295Z,42.40
2019-04-07T08:13:07.475Z,43.97
2019-04-07T08:15:33.657Z,42.03
2019-04-07T08:18:06.458Z,40.37
2019-04-07T08:20:32.666Z,46.40
2019-04-07T08:23:00.874Z,49.83
2019-04-07T08:25:29.203Z,44.83
2019-04-07T08:27:58.145Z,45.73
2019-04-07T08:30:27.122Z,45.53
2019-04-07T08:32:58.583Z,44.20
2019-04-07T08:35:25.289Z,46.83
2019-04-07T08:37:53.505Z,42.37
2019-04-07T08:40:21.739Z,43.33
2019-04-07T08:42:50.794Z,39.83
2019-04-07T08:45:19.640Z,42.40
2019-04-07T08:47:49.602Z,38.27
2019-04-07T08:50:20.803Z,38.10
2019-04-07T08:52:48.311Z,42.97
2019-04-07T08:55:19.941Z,37.77
2019-04-07T08:57:46.913Z,43.67
2019-04-07T09:00:17.461Z,37.30
2019-04-07T09:02:50.373Z,42.17
2019-04-07T09:05:20.632Z,43.23
2019-04-07T09:07:47.142Z,41.93
2019-04-07T09:10:19.483Z,38.70
2019-04-07T09:12:46.934Z,36.67
2019-04-07T09:15:16.792Z,31.90
2019-04-07T09:17:47.721Z,31.57
2019-04-07T09:20:26.991Z,34.47
2019-04-07T09:22:57.990Z,28.17
2019-04-07T09:25:40.032Z,27.93
2019-04-07T09:28:08.736Z,30.87
2019-04-07T09:30:48.288Z,30.67
2019-04-07T09:33:18.164Z,27.87
2019-04-07T09:35:56.725Z,28.33
2019-04-07T09:38:33.750Z,26.63
2019-04-07T09:41:09.558Z,28.20
2019-04-07T09:43:55.195Z,28.83
2019-04-07T09:46:41.643Z,25.77
2019-04-07T09:49:24.524Z,25.93
2019-04-07T09:52:00.976Z,27.57
2019-04-07T09:54:39.846Z,27.23
2019-04-07T09:57:15.690Z,28.47
2019-04-07T09:59:55.791Z,29.87
2019-04-07T10:02:31.887Z,32.30
2019-04-07T10:05:00.791Z,28.73
2019-04-07T10:07:46.876Z,28.60
2019-04-07T10:10:17.163Z,29.03
2019-04-07T10:12:54.303Z,27.97
2019-04-07T10:15:40.269Z,30.33
2019-04-07T10:18:26.082Z,30.77
2019-04-07T10:21:04.386Z,29.10
2019-04-07T10:23:48.739Z,28.70
2019-04-07T10:26:33.763Z,28.93
2019-04-07T10:29:19.796Z,27.45
2019-04-07T10:31:58.922Z,30.17
2019-04-07T10:34:31.969Z,29.63
2019-04-07T10:37:17.741Z,31.47
2019-04-07T10:40:03.128Z,31.60
2019-04-07T10:42:44.854Z,31.45
2019-04-07T10:45:17.500Z,31.87
2019-04-07T10:47:47.326Z,33.38
2019-04-07T10:50:23.175Z,33.05
2019-04-07T10:53:08.252Z,30.33
2019-04-07T10:55:44.152Z,33.90
2019-04-07T10:58:16.913Z,32.97
2019-04-07T11:00:55.240Z,28.02
2019-04-07T11:03:41.394Z,34.85
2019-04-07T11:06:29.474Z,31.17
2019-04-07T11:09:08.001Z,30.20
2019-04-07T11:11:43.833Z,33.00
2019-04-07T11:14:22.934Z,31.95
2019-04-07T11:16:52.777Z,34.73
2019-04-07T11:19:40.993Z,36.00
2019-04-07T11:22:16.606Z,34.43
2019-04-07T11:25:02.351Z,36.10
2019-04-07T11:27:38.169Z,36.60
2019-04-07T11:30:12.079Z,42.00
2019-04-07T11:32:54.329Z,40.73
2019-04-07T11:35:26.765Z,40.83
2019-04-07T11:37:55.956Z,41.28
2019-04-07T11:40:41.951Z,40.28
2019-04-07T11:43:04.361Z,41.85
2019-04-07T11:45:56.075Z,42.83
2019-04-07T11:48:24.166Z,40.12
2019-04-07T11:50:54.249Z,38.63
2019-04-07T11:53:30.781Z,38.40
2019-04-07T11:56:13.265Z,35.52
2019-04-07T11:58:45.877Z,36.75
2019-04-07T12:01:16.666Z,36.28
2019-04-07T12:03:46.524Z,34.78
2019-04-07T12:06:18.053Z,32.75
2019-04-07T12:09:04.887Z,31.63
2019-04-07T12:11:34.733Z,35.00
2019-04-07T12:14:07.424Z,36.23
2019-04-07T12:16:55.310Z,36.23
2019-04-07T12:19:32.086Z,34.05
2019-04-07T12:22:10.395Z,30.88
2019-04-07T12:24:42.207Z,35.92
2019-04-07T12:27:15.148Z,35.60
2019-04-07T12:30:01.124Z,38.13
2019-04-07T12:32:31.365Z,36.97
2019-04-07T12:35:01.188Z,37.67
2019-04-07T12:37:31.759Z,39.00
2019-04-07T12:40:20.722Z,38.10
2019-04-07T12:43:04.642Z,38.37
2019-04-07T12:45:46.770Z,36.48
2019-04-07T12:48:25.871Z,36.83
2019-04-07T12:51:13.644Z,38.38
2019-04-07T12:53:46.155Z,36.13
2019-04-07T12:56:16.891Z,36.98
2019-04-07T12:58:55.992Z,35.33
2019-04-07T13:01:25.840Z,34.58
2019-04-07T13:03:55.887Z,37.73
2019-04-07T13:06:31.993Z,32.93
2019-04-07T13:09:18.244Z,31.52
2019-04-07T13:12:04.274Z,32.15
2019-04-07T13:14:38.577Z,33.53
2019-04-07T13:17:17.901Z,31.25
2019-04-07T13:19:51.365Z,32.13
2019-04-07T13:22:33.488Z,29.65
2019-04-07T13:25:20.093Z,30.45
2019-04-07T13:27:57.811Z,28.35
2019-04-07T13:30:42.286Z,31.25
2019-04-07T13:33:29.555Z,28.45
2019-04-07T13:35:59.642Z,27.45
2019-04-07T13:38:29.436Z,28.20
2019-04-07T13:41:05.414Z,27.98
2019-04-07T13:43:53.488Z,31.48
2019-04-07T13:46:40.080Z,28.25
2019-04-07T13:49:16.103Z,27.22
2019-04-07T13:51:49.362Z,28.23
2019-04-07T13:54:31.231Z,31.97
2019-04-07T13:57:00.350Z,31.15
2019-04-07T13:59:30.202Z,29.45
2019-04-07T14:02:03.129Z,29.85
2019-04-07T14:04:42.405Z,27.70
2019-04-07T14:07:17.966Z,33.25
2019-04-07T14:09:49.563Z,32.70
2019-04-07T14:12:25.966Z,33.98
2019-04-07T14:15:02.841Z,33.75
2019-04-07T14:17:44.967Z,32.90
2019-04-07T14:20:22.634Z,30.30
2019-04-07T14:22:53.105Z,32.27
2019-04-07T14:25:23.467Z,31.15
2019-04-07T14:28:12.180Z,30.90
2019-04-07T14:30:45.659Z,31.02
2019-04-07T14:33:15.522Z,31.02
2019-04-07T14:35:45.404Z,31.45
2019-04-07T14:38:21.260Z,32.63
2019-04-07T14:41:07.485Z,29.63
2019-04-07T14:43:49.735Z,31.62
2019-04-07T14:46:21.138Z,29.52
2019-04-07T14:48:54.416Z,30.00
2019-04-07T14:51:28.372Z,27.55
2019-04-07T14:54:01.121Z,30.32
2019-04-07T14:56:40.824Z,29.25
2019-04-07T14:59:11.746Z,24.52
2019-04-07T15:01:56.040Z,28.70
2019-04-07T15:04:32.675Z,28.17
2019-04-07T15:07:18.240Z,26.48
2019-04-07T15:10:05.071Z,28.35
2019-04-07T15:12:46.874Z,25.88
2019-04-07T15:15:15.950Z,22.25
2019-04-07T15:17:45.601Z,25.52
2019-04-07T15:20:15.679Z,27.82
2019-04-07T15:22:46.848Z,30.17
2019-04-07T15:25:14.046Z,28.32
2019-04-07T15:27:42.525Z,27.95
2019-04-07T15:30:15.338Z,27.13
2019-04-07T15:32:41.626Z,29.63
2019-04-07T15:35:13.220Z,30.70
2019-04-07T15:37:41.034Z,31.70
2019-04-07T15:40:10.899Z,30.10
2019-04-07T15:42:44.114Z,31.20
2019-04-07T15:45:12.040Z,29.27
2019-04-07T15:47:40.439Z,29.40
2019-04-07T15:50:09.549Z,31.75
2019-04-07T15:52:42.175Z,32.88
2019-04-07T15:55:08.615Z,30.27
2019-04-07T15:57:37.303Z,31.15
2019-04-07T16:00:08.836Z,31.48
2019-04-07T16:02:40.933Z,31.95
2019-04-07T16:05:07.072Z,32.03
2019-04-07T16:07:35.301Z,32.45
2019-04-07T16:10:05.881Z,32.13
2019-04-07T16:12:42.872Z,31.12
2019-04-07T16:15:05.338Z,31.45
2019-04-07T16:17:34.811Z,31.80
2019-04-07T16:20:04.034Z,32.42
2019-04-07T16:22:32.251Z,31.35
2019-04-07T16:25:01.827Z,32.03
2019-04-07T16:27:30.452Z,32.55
2019-04-07T16:29:58.654Z,31.20
2019-04-07T16:32:29.186Z,30.82
2019-04-07T16:34:57.322Z,31.17
2019-04-07T16:37:29.102Z,33.18
2019-04-07T16:39:55.630Z,30.25
2019-04-07T16:42:27.587Z,33.33
2019-04-07T16:44:56.177Z,34.13
2019-04-07T16:47:26.282Z,32.00
2019-04-07T16:49:54.731Z,30.37
2019-04-07T16:52:23.158Z,32.55
2019-04-07T16:54:51.669Z,33.67
2019-04-07T16:57:20.507Z,31.15
2019-04-07T16:59:48.697Z,30.40
2019-04-07T17:02:18.274Z,31.00
2019-04-07T17:04:47.093Z,32.67
2019-04-07T17:07:17.094Z,31.40
2019-04-07T17:09:45.596Z,29.02
2019-04-07T17:12:14.945Z,29.90
2019-04-07T17:14:43.573Z,28.55
2019-04-07T17:17:15.686Z,28.98
2019-04-07T17:19:42.077Z,32.33
2019-04-07T17:22:14.001Z,32.50
2019-04-07T17:24:40.985Z,30.48
2019-04-07T17:27:11.398Z,34.25
2019-04-07T17:29:39.529Z,33.90
2019-04-07T17:32:08.916Z,32.23
2019-04-07T17:34:37.983Z,34.60
2019-04-07T17:37:07.281Z,32.95
2019-04-07T17:39:46.161Z,35.28
2019-04-07T17:42:15.643Z,33.33
2019-04-07T17:44:47.830Z,35.93
2019-04-07T17:47:29.390Z,34.00
2019-04-07T17:50:14.717Z,35.40
2019-04-07T17:52:48.237Z,36.33
2019-04-07T17:55:34.207Z,33.88
2019-04-07T17:58:20.110Z,37.20
2019-04-07T18:01:06.302Z,33.97
2019-04-07T18:03:41.829Z,36.87
2019-04-07T18:06:15.665Z,39.00
2019-04-07T18:08:51.820Z,35.60
2019-04-07T18:11:23.162Z,37.20
2019-04-07T18:13:56.682Z,39.47
2019-04-07T18:16:34.178Z,37.83
2019-04-07T18:19:07.184Z,39.80
2019-04-07T18:21:53.890Z,41.20
2019-04-07T18:24:39.236Z,40.60
2019-04-07T18:27:11.857Z,40.67
2019-04-07T18:29:43.315Z,40.90
2019-04-07T18:32:21.903Z,42.53
2019-04-07T18:34:52.792Z,40.97
2019-04-07T18:37:40.131Z,40.17
2019-04-07T18:40:27.446Z,43.27
2019-04-07T18:43:00.999Z,41.33
2019-04-07T18:45:33.345Z,44.57
2019-04-07T18:48:03.471Z,41.70
2019-04-07T18:50:36.936Z,43.57
2019-04-07T18:53:20.780Z,42.33
2019-04-07T18:55:50.944Z,43.83
2019-04-07T18:58:20.948Z,44.40
2019-04-07T19:00:57.468Z,43.17
2019-04-07T19:03:30.091Z,45.87
2019-04-07T19:06:16.561Z,45.60
2019-04-07T19:09:01.871Z,47.13
2019-04-07T19:11:48.701Z,45.57
2019-04-07T19:14:38.018Z,44.87
2019-04-07T19:17:05.384Z,46.63
2019-04-07T19:19:46.794Z,43.47
2019-04-07T19:22:34.817Z,47.07
2019-04-07T19:25:15.740Z,46.73
2019-04-07T19:28:01.022Z,45.30
2019-04-07T19:30:48.616Z,47.37
2019-04-07T19:33:17.273Z,45.50
2019-04-07T19:35:49.952Z,44.47
2019-04-07T19:38:37.333Z,46.13
2019-04-07T19:41:06.850Z,49.60
2019-04-07T19:43:37.186Z,50.57
2019-04-07T19:46:26.433Z,51.70
2019-04-07T19:48:58.998Z,46.73
2019-04-07T19:51:32.152Z,45.77
2019-04-07T19:54:20.155Z,47.53
2019-04-07T19:56:55.447Z,53.00
2019-04-07T19:59:42.662Z,50.93
2019-04-07T20:02:12.279Z,47.57
2019-04-07T20:04:53.532Z,47.90
2019-04-07T20:07:31.583Z,46.93
2019-04-07T20:10:23.721Z,46.73
2019-04-07T20:12:51.994Z,48.40
2019-04-07T20:15:29.737Z,49.30
2019-04-07T20:18:17.461Z,48.07
2019-04-07T20:20:48.323Z,49.03
2019-04-07T20:23:34.519Z,49.03
2019-04-07T20:26:22.293Z,49.23
2019-04-07T20:29:07.041Z,48.17
2019-04-07T20:31:51.967Z,48.47
2019-04-07T20:34:27.791Z,50.77
2019-04-07T20:37:07.223Z,49.93
2019-04-07T20:39:37.505Z,45.67
2019-04-07T20:42:17.364Z,48.47
2019-04-07T20:45:02.487Z,50.47
2019-04-07T20:47:38.156Z,48.73
2019-04-07T20:50:20.190Z,50.20
2019-04-07T20:52:50.402Z,48.93
2019-04-07T20:55:29.145Z,50.47
2019-04-07T20:58:22.087Z,48.07
2019-04-07T21:01:04.926Z,45.63
2019-04-07T21:03:37.573Z,47.13
2019-04-07T21:06:19.903Z,46.83
2019-04-07T21:08:49.898Z,47.33
2019-04-07T21:11:25.978Z,45.90
2019-04-07T21:14:15.485Z,47.53
2019-04-07T21:16:57.861Z,46.80
2019-04-07T21:19:38.847Z,47.17
2019-04-07T21:22:08.822Z,47.20
2019-04-07T21:24:38.985Z,48.33
2019-04-07T21:27:08.800Z,47.47
2019-04-07T21:29:45.925Z,48.33
2019-04-07T21:32:23.236Z,47.27
2019-04-07T21:35:01.380Z,47.50
2019-04-07T21:37:40.820Z,46.90
2019-04-07T21:40:20.979Z,48.87
2019-04-07T21:42:56.519Z,50.10
2019-04-07T21:45:35.403Z,50.70
2019-04-07T21:48:01.381Z,50.60
2019-04-07T21:50:31.698Z,51.57
2019-04-07T21:53:07.399Z,51.87
2019-04-07T21:55:42.075Z,50.73
2019-04-07T21:58:12.397Z,51.73
2019-04-07T22:00:51.142Z,51.07
2019-04-07T22:03:23.496Z,51.07
2019-04-07T22:05:59.391Z,50.23
2019-04-07T22:08:47.784Z,50.80
2019-04-07T22:11:16.274Z,49.00
2019-04-07T22:13:44.920Z,49.10
2019-04-07T22:16:13.129Z,49.87
2019-04-07T22:18:41.820Z,50.47
2019-04-07T22:21:10.206Z,52.13
2019-04-07T22:23:38.676Z,50.20
2019-04-07T22:26:12.721Z,52.33
2019-04-07T22:28:37.311Z,50.13
2019-04-07T22:31:05.661Z,51.57
2019-04-07T22:33:34.945Z,51.13
2019-04-07T22:36:03.879Z,51.30
2019-04-07T22:38:32.126Z,51.33
2019-04-07T22:41:01.324Z,48.57
2019-04-07T22:43:29.593Z,47.67
2019-04-07T22:46:07.741Z,47.00
2019-04-07T22:48:29.354Z,45.77
2019-04-07T22:50:58.733Z,46.50
2019-04-07T22:53:29.591Z,48.40
2019-04-07T22:55:57.125Z,48.27
2019-04-07T22:58:25.585Z,47.63
2019-04-07T23:00:54.340Z,49.37
2019-04-07T23:03:22.504Z,51.47
2019-04-07T23:05:51.351Z,51.07
2019-04-07T23:08:19.532Z,49.17
2019-04-07T23:10:48.018Z,48.90
2019-04-07T23:13:16.626Z,51.33
2019-04-07T23:15:46.445Z,51.97
2019-04-07T23:18:15.809Z,54.83
2019-04-07T23:20:44.490Z,53.03
2019-04-07T23:23:12.980Z,53.23
2019-04-07T23:25:42.041Z,51.83
2019-04-07T23:28:10.452Z,50.63
2019-04-07T23:30:39.714Z,49.13
2019-04-07T23:33:08.373Z,46.67
2019-04-07T23:35:37.083Z,45.57
2019-04-07T23:38:05.780Z,45.10
2019-04-07T23:40:34.384Z,45.60
2019-04-07T23:43:02.670Z,48.70
2019-04-07T23:45:31.589Z,46.40
2019-04-07T23:47:59.976Z,48.17
2019-04-07T23:50:29.252Z,47.10
2019-04-07T23:53:00.146Z,48.57
2019-04-07T23:55:28.405Z,50.50
2019-04-07T23:57:56.825Z,51.83
